Time;durP1;ratioP1;P1;durP2;ratioP2;P2;SDS_P1;SDS_P2;PMS_P1;PMS_P2;Temp;Humidity;BMP_temperature;BMP_pressure;BME280_temperature;BME280_humidity;BME280_pressure;Samples;Min_cycle;Max_cycle;Signal;HPM_P1;HPM_P2
2021/12/27 00:01:38;;;;;;;12.48;5.22;;;-7.30;99.90;;;;;;5052166;28;20433;-82
2021/12/27 00:04:06;;;;;;;12.35;5.07;;;-7.40;99.90;;;;;;5055021;28;20418;-83
2021/12/27 00:06:34;;;;;;;11.40;5.20;;;-7.40;99.90;;;;;;5053514;28;20499;-84
2021/12/27 00:09:01;;;;;;;9.07;4.70;;;-7.30;99.90;;;;;;5053882;28;20445;-82
2021/12/27 00:11:29;;;;;;;8.82;4.43;;;-7.30;99.90;;;;;;5053681;28;20390;-83
2021/12/27 00:13:57;;;;;;;10.15;4.60;;;-7.30;99.90;;;;;;5054794;28;20870;-83
2021/12/27 00:16:24;;;;;;;12.98;5.40;;;-7.30;99.90;;;;;;5053173;28;20969;-82
2021/12/27 00:18:52;;;;;;;10.90;4.30;;;-7.30;99.90;;;;;;5053815;28;20453;-84
2021/12/27 00:21:20;;;;;;;12.90;5.10;;;-7.30;99.90;;;;;;5036844;28;20908;-84
2021/12/27 00:23:47;;;;;;;11.90;4.68;;;-7.30;99.90;;;;;;5052587;28;20404;-83
2021/12/27 00:26:15;;;;;;;9.40;4.20;;;-7.30;99.90;;;;;;5054243;28;20388;-82
2021/12/27 00:28:43;;;;;;;10.95;4.53;;;-7.30;99.90;;;;;;5050566;28;20878;-83
2021/12/27 00:31:10;;;;;;;11.85;4.82;;;-7.30;99.90;;;;;;5033024;28;20413;-84
2021/12/27 00:33:38;;;;;;;7.90;4.13;;;-7.30;99.90;;;;;;5033082;28;20892;-82
2021/12/27 00:36:05;;;;;;;8.70;4.13;;;-7.30;99.90;;;;;;5034071;28;20389;-83
2021/12/27 00:38:33;;;;;;;9.98;4.68;;;-7.30;99.90;;;;;;5034257;28;20409;-83
2021/12/27 00:41:01;;;;;;;9.85;4.55;;;-7.20;99.90;;;;;;5036846;28;20390;-82
2021/12/27 00:43:29;;;;;;;11.20;3.70;;;-7.20;99.90;;;;;;5054191;28;20874;-83
2021/12/27 00:45:56;;;;;;;10.13;4.32;;;-7.20;99.90;;;;;;5051910;28;20471;-83
2021/12/27 00:48:25;;;;;;;9.07;4.07;;;-7.20;99.90;;;;;;5045478;28;20412;-83
2021/12/27 00:50:52;;;;;;;8.80;3.95;;;-7.20;99.90;;;;;;5053042;28;20396;-82
2021/12/27 00:53:20;;;;;;;10.55;4.85;;;-7.20;99.90;;;;;;5048155;28;20416;-84
2021/12/27 00:55:48;;;;;;;12.13;4.28;;;-7.30;99.90;;;;;;5052431;28;20392;-83
2021/12/27 00:58:15;;;;;;;10.98;4.38;;;-7.20;99.90;;;;;;5029713;28;20416;-82
2021/12/27 01:00:43;;;;;;;10.40;4.05;;;-7.20;99.90;;;;;;5052389;28;20383;-83
2021/12/27 01:03:11;;;;;;;8.75;4.38;;;-7.30;99.90;;;;;;5050619;28;20514;-83
2021/12/27 01:05:38;;;;;;;8.77;4.00;;;-7.30;99.90;;;;;;5050275;28;20405;-83
2021/12/27 01:08:06;;;;;;;9.38;4.18;;;-7.30;99.90;;;;;;5049795;28;20403;-84
2021/12/27 01:13:06;;;;;;;11.88;4.03;;;-7.30;99.90;;;;;;5053107;28;20395;-82
2021/12/27 01:15:47;;;;;;;9.23;4.05;;;-7.20;99.90;;;;;;5053687;28;20394;-84
2021/12/27 01:18:16;;;;;;;11.60;3.95;;;-7.30;99.90;;;;;;5033757;28;20499;-83
2021/12/27 01:20:45;;;;;;;9.43;3.80;;;-7.30;99.90;;;;;;5033701;28;20381;-84
2021/12/27 01:23:13;;;;;;;8.93;4.13;;;-7.30;99.90;;;;;;5033575;28;20385;-83
2021/12/27 01:25:41;;;;;;;7.32;3.40;;;-7.30;99.90;;;;;;5052325;28;20398;-83
2021/12/27 01:28:09;;;;;;;9.20;4.05;;;-7.40;99.90;;;;;;5053418;28;20392;-83
2021/12/27 01:30:45;;;;;;;7.97;3.80;;;-7.40;99.90;;;;;;5053198;28;20395;-84
2021/12/27 01:33:17;;;;;;;9.48;4.00;;;-7.40;99.90;;;;;;5053553;28;20383;-84
2021/12/27 01:35:46;;;;;;;10.07;4.20;;;-7.40;99.90;;;;;;5036544;28;20389;-82
2021/12/27 01:38:15;;;;;;;9.77;4.53;;;-7.40;99.90;;;;;;5032134;28;20760;-84
2021/12/27 01:40:46;;;;;;;8.70;3.83;;;-7.40;99.90;;;;;;5032253;28;20455;-84
2021/12/27 01:43:25;;;;;;;8.13;3.53;;;-7.40;99.90;;;;;;5051850;28;20398;-82
2021/12/27 01:45:55;;;;;;;7.93;3.22;;;-7.40;99.90;;;;;;5053103;28;20388;-83
2021/12/27 01:48:28;;;;;;;8.15;3.78;;;-7.40;99.90;;;;;;5053103;28;20874;-83
2021/12/27 01:50:57;;;;;;;8.80;3.95;;;-7.40;99.90;;;;;;5052919;28;20724;-83
2021/12/27 01:53:27;;;;;;;8.10;3.72;;;-7.30;99.90;;;;;;5053053;28;20387;-83
2021/12/27 01:55:56;;;;;;;11.07;4.03;;;-7.30;99.90;;;;;;5052980;28;20866;-83
2021/12/27 01:58:24;;;;;;;9.20;4.03;;;-7.30;99.90;;;;;;5052646;28;20396;-83
2021/12/27 02:00:55;;;;;;;9.07;4.15;;;-7.30;99.90;;;;;;5052794;28;20391;-84
2021/12/27 02:03:25;;;;;;;11.65;4.47;;;-7.30;99.90;;;;;;5052938;28;20934;-84
2021/12/27 02:05:54;;;;;;;8.07;4.03;;;-7.30;99.90;;;;;;5035503;28;20389;-83
2021/12/27 02:08:22;;;;;;;8.68;4.13;;;-7.40;99.90;;;;;;5031823;28;20405;-83
2021/12/27 02:10:50;;;;;;;10.43;4.83;;;-7.40;99.90;;;;;;5031621;28;20389;-83
2021/12/27 02:13:18;;;;;;;10.95;4.82;;;-7.30;99.90;;;;;;5032576;28;20818;-83
2021/12/27 02:15:49;;;;;;;10.88;4.68;;;-7.30;99.90;;;;;;5048071;28;20397;-84
2021/12/27 02:18:17;;;;;;;13.52;5.18;;;-7.30;99.90;;;;;;5031246;28;20465;-82
2021/12/27 02:20:45;;;;;;;9.75;5.03;;;-7.20;99.90;;;;;;5014855;28;20393;-83
2021/12/27 02:23:19;;;;;;;10.68;5.07;;;-7.20;99.90;;;;;;5032392;28;20390;-83
2021/12/27 02:25:49;;;;;;;12.27;4.72;;;-7.20;99.90;;;;;;5030347;28;20412;-82
2021/12/27 02:28:18;;;;;;;12.07;4.67;;;-7.20;99.90;;;;;;5031282;28;20452;-82
2021/12/27 02:30:48;;;;;;;8.60;4.28;;;-7.20;99.90;;;;;;5032039;28;20389;-83
2021/12/27 02:33:16;;;;;;;8.93;4.00;;;-7.20;99.90;;;;;;5031360;28;20393;-84
2021/12/27 02:35:49;;;;;;;12.75;4.68;;;-7.10;99.90;;;;;;5014728;28;20879;-83
2021/12/27 02:38:24;;;;;;;9.93;4.17;;;-7.10;99.90;;;;;;5032024;28;20412;-83
2021/12/27 02:40:52;;;;;;;9.18;4.22;;;-7.10;99.90;;;;;;5032079;28;20860;-84
2021/12/27 02:43:25;;;;;;;11.98;4.50;;;-7.10;99.90;;;;;;5032040;28;20392;-85
2021/12/27 02:45:56;;;;;;;9.60;4.40;;;-7.10;99.90;;;;;;5030899;28;20476;-84
2021/12/27 02:48:30;;;;;;;10.25;4.35;;;-7.10;99.90;;;;;;5030737;28;20396;-83
2021/12/27 02:50:58;;;;;;;8.82;3.92;;;-7.10;99.90;;;;;;5031915;28;20438;-83
2021/12/27 02:53:28;;;;;;;11.23;4.38;;;-7.10;99.90;;;;;;5031849;28;20385;-84
2021/12/27 02:55:58;;;;;;;9.88;4.43;;;-7.10;99.90;;;;;;5031798;28;20397;-83
2021/12/27 02:58:27;;;;;;;10.60;4.40;;;-7.10;99.90;;;;;;5030711;28;20419;-83
2021/12/27 03:00:58;;;;;;;10.77;4.45;;;-7.00;99.90;;;;;;5030724;28;20791;-84
2021/12/27 03:03:27;;;;;;;11.25;3.97;;;-7.00;99.90;;;;;;5030567;28;20878;-83
2021/12/27 03:05:54;;;;;;;11.50;4.38;;;-7.00;99.90;;;;;;5031662;28;20782;-84
2021/12/27 03:08:23;;;;;;;9.27;4.13;;;-7.00;99.90;;;;;;5031637;28;20929;-83
2021/12/27 03:10:53;;;;;;;9.05;3.95;;;-7.00;99.90;;;;;;5031827;28;20936;-83
2021/12/27 03:13:27;;;;;;;8.40;3.97;;;-7.00;99.90;;;;;;5013875;28;21023;-82
2021/12/27 03:16:07;;;;;;;8.77;4.18;;;-6.90;99.90;;;;;;5030875;28;20539;-83
2021/12/27 03:18:36;;;;;;;8.77;4.00;;;-6.90;99.90;;;;;;5031752;28;20414;-83
2021/12/27 03:21:05;;;;;;;11.07;4.05;;;-6.90;99.90;;;;;;5038413;28;20385;-83
2021/12/27 03:23:34;;;;;;;8.82;4.18;;;-6.80;99.90;;;;;;5031316;28;20894;-82
2021/12/27 03:26:03;;;;;;;7.00;3.58;;;-6.80;99.90;;;;;;5030180;28;20417;-83
2021/12/27 03:28:31;;;;;;;9.25;4.00;;;-6.90;99.90;;;;;;5046532;28;20388;-82
2021/12/27 03:30:59;;;;;;;7.85;3.58;;;-6.80;99.90;;;;;;5051209;28;20395;-84
2021/12/27 03:33:27;;;;;;;7.97;3.45;;;-6.80;99.90;;;;;;5050097;28;20872;-84
2021/12/27 03:36:04;;;;;;;8.15;3.55;;;-6.70;99.90;;;;;;5051845;28;20399;-84
2021/12/27 03:38:36;;;;;;;8.43;3.75;;;-6.60;99.90;;;;;;5040060;28;20451;-81
2021/12/27 03:41:09;;;;;;;8.13;3.42;;;-6.50;99.90;;;;;;5044437;28;20389;-82
2021/12/27 03:43:37;;;;;;;8.75;3.67;;;-6.40;99.90;;;;;;5037044;28;20389;-82
2021/12/27 03:46:05;;;;;;;10.02;4.00;;;-6.40;99.90;;;;;;5037017;28;20381;-84
2021/12/27 03:48:33;;;;;;;7.20;3.65;;;-6.50;99.90;;;;;;5036486;28;20480;-82
2021/12/27 03:51:02;;;;;;;7.75;3.70;;;-6.40;99.90;;;;;;5037833;28;20400;-82
2021/12/27 03:53:30;;;;;;;10.27;4.28;;;-6.40;99.90;;;;;;5036476;28;20485;-84
2021/12/27 03:55:58;;;;;;;7.88;3.70;;;-6.40;99.90;;;;;;5042523;28;20400;-84
2021/12/27 03:58:33;;;;;;;9.35;3.72;;;-6.40;99.90;;;;;;5056350;28;20404;-83
2021/12/27 04:01:16;;;;;;;10.65;4.07;;;-6.40;99.90;;;;;;5056124;28;20827;-82
2021/12/27 04:03:48;;;;;;;10.02;3.90;;;-6.30;99.90;;;;;;5057663;28;20871;-82
2021/12/27 04:06:18;;;;;;;8.57;3.72;;;-6.20;99.90;;;;;;5043962;28;20969;-81
2021/12/27 04:08:46;;;;;;;9.90;3.85;;;-6.20;99.90;;;;;;5043798;28;20392;-81
2021/12/27 04:11:14;;;;;;;7.65;3.60;;;-6.20;99.90;;;;;;5056231;28;20434;-83
2021/12/27 04:13:42;;;;;;;9.05;3.47;;;-6.30;99.90;;;;;;5056336;28;20809;-81
2021/12/27 04:16:11;;;;;;;9.48;4.05;;;-6.20;99.90;;;;;;5057677;28;20394;-83
2021/12/27 04:18:39;;;;;;;7.70;3.45;;;-6.20;99.90;;;;;;5057480;28;20399;-84
2021/12/27 04:21:07;;;;;;;9.23;3.58;;;-6.20;99.90;;;;;;5056163;28;20391;-84
2021/12/27 04:23:35;;;;;;;11.27;3.90;;;-6.20;99.90;;;;;;5056183;28;20948;-84
2021/12/27 04:26:03;;;;;;;7.95;3.67;;;-6.30;99.90;;;;;;5056350;28;20380;-83
2021/12/27 04:28:31;;;;;;;9.00;3.83;;;-6.30;99.90;;;;;;5057405;28;20395;-84
2021/12/27 04:30:59;;;;;;;5.95;3.08;;;-6.30;99.90;;;;;;5039392;28;20407;-83
2021/12/27 04:33:27;;;;;;;10.30;3.65;;;-6.30;99.90;;;;;;5056299;28;20395;-83
2021/12/27 04:35:55;;;;;;;8.57;3.70;;;-6.40;99.90;;;;;;5050116;28;20401;-83
2021/12/27 04:38:22;;;;;;;8.00;3.40;;;-6.30;99.90;;;;;;5047525;28;20440;-83
2021/12/27 04:40:52;;;;;;;9.23;4.00;;;-6.30;99.90;;;;;;5036266;28;20444;-81
2021/12/27 04:43:22;;;;;;;6.43;3.38;;;-6.30;99.90;;;;;;5041022;28;20390;-84
2021/12/27 04:45:51;;;;;;;9.52;3.72;;;-6.30;99.90;;;;;;5057203;28;20394;-83
2021/12/27 04:48:22;;;;;;;9.02;4.15;;;-6.30;99.90;;;;;;5034721;28;20389;-83
2021/12/27 04:50:49;;;;;;;7.78;3.60;;;-6.30;99.90;;;;;;5032983;28;20398;-83
2021/12/27 04:53:17;;;;;;;9.67;3.70;;;-6.30;99.90;;;;;;5049552;28;20424;-84
2021/12/27 04:55:45;;;;;;;9.07;3.80;;;-6.30;99.90;;;;;;5052843;28;20388;-82
2021/12/27 04:58:16;;;;;;;7.30;3.60;;;-6.30;99.90;;;;;;5054068;28;20399;-81
2021/12/27 05:00:46;;;;;;;8.75;3.55;;;-6.30;99.90;;;;;;5052673;28;20384;-84
2021/12/27 05:03:14;;;;;;;9.00;3.83;;;-6.30;99.90;;;;;;5032836;28;20736;-85
2021/12/27 05:05:45;;;;;;;8.65;3.60;;;-6.30;99.90;;;;;;5016234;28;20390;-81
2021/12/27 05:08:13;;;;;;;9.82;3.90;;;-6.30;99.90;;;;;;5032611;28;20444;-83
2021/12/27 05:10:45;;;;;;;9.63;3.70;;;-6.30;99.90;;;;;;5045838;28;20394;-83
2021/12/27 05:13:13;;;;;;;8.40;3.95;;;-6.30;99.90;;;;;;5052331;28;20388;-81
2021/12/27 05:15:41;;;;;;;8.90;3.67;;;-6.40;99.90;;;;;;5035845;28;20396;-82
2021/12/27 05:18:10;;;;;;;8.52;4.13;;;-6.40;99.90;;;;;;5053531;28;20404;-83
2021/12/27 05:20:37;;;;;;;9.50;4.13;;;-6.40;99.90;;;;;;5052125;28;20392;-81
2021/12/27 05:23:05;;;;;;;9.60;4.10;;;-6.40;99.90;;;;;;5053562;28;20908;-82
2021/12/27 05:25:33;;;;;;;8.07;3.70;;;-6.40;99.90;;;;;;5052057;28;20392;-82
2021/12/27 05:28:01;;;;;;;9.52;3.78;;;-6.40;99.90;;;;;;5020651;28;20433;-82
2021/12/27 05:30:28;;;;;;;9.45;3.90;;;-6.30;99.90;;;;;;5032103;28;20393;-84
2021/12/27 05:32:56;;;;;;;9.52;3.95;;;-6.30;99.90;;;;;;5015864;28;20516;-84
2021/12/27 05:35:24;;;;;;;9.57;4.07;;;-6.30;99.90;;;;;;5032115;28;20397;-81
2021/12/27 05:37:51;;;;;;;9.88;4.22;;;-6.30;99.90;;;;;;5040686;28;20399;-82
2021/12/27 05:40:22;;;;;;;11.00;4.40;;;-6.30;99.90;;;;;;5033249;28;20389;-82
2021/12/27 05:42:51;;;;;;;11.77;5.07;;;-6.30;99.90;;;;;;5033204;28;20396;-82
2021/12/27 05:45:20;;;;;;;9.85;4.20;;;-6.40;99.90;;;;;;5048164;28;20935;-84
2021/12/27 05:47:48;;;;;;;8.57;4.15;;;-6.40;99.90;;;;;;5051924;28;20383;-84
2021/12/27 05:50:18;;;;;;;10.07;4.88;;;-6.40;99.90;;;;;;5052957;28;20387;-84
2021/12/27 05:52:52;;;;;;;8.90;3.95;;;-6.40;99.90;;;;;;5051707;28;20400;-84
2021/12/27 05:55:20;;;;;;;8.68;3.90;;;-6.40;99.90;;;;;;5052950;28;20815;-84
2021/12/27 05:57:48;;;;;;;8.15;4.32;;;-6.40;99.90;;;;;;5051696;28;20387;-84
2021/12/27 06:00:16;;;;;;;10.90;4.40;;;-6.40;99.90;;;;;;5051339;28;20793;-84
2021/12/27 06:02:44;;;;;;;8.73;4.15;;;-6.40;99.90;;;;;;5052766;28;20394;-85
2021/12/27 06:05:13;;;;;;;8.98;4.25;;;-6.40;99.90;;;;;;5051641;28;20442;-84
2021/12/27 06:07:41;;;;;;;8.57;4.03;;;-6.40;99.90;;;;;;5046808;28;20401;-83
2021/12/27 06:10:09;;;;;;;9.63;4.07;;;-6.40;99.90;;;;;;5045629;28;20476;-81
2021/12/27 06:12:37;;;;;;;9.50;4.00;;;-6.40;99.90;;;;;;5038461;28;20398;-82
2021/12/27 06:15:05;;;;;;;10.60;4.53;;;-6.40;99.90;;;;;;5031316;28;20768;-82
2021/12/27 06:17:34;;;;;;;8.88;3.92;;;-6.40;99.90;;;;;;5045678;28;20415;-81
2021/12/27 06:20:04;;;;;;;8.30;3.88;;;-6.40;99.90;;;;;;5052421;28;20481;-82
2021/12/27 06:22:33;;;;;;;8.23;3.80;;;-6.40;99.90;;;;;;5052377;28;20390;-82
2021/12/27 06:25:03;;;;;;;8.40;4.03;;;-6.30;99.90;;;;;;5051169;28;20380;-84
2021/12/27 06:27:32;;;;;;;11.05;4.15;;;-6.30;99.90;;;;;;5040955;28;20401;-83
2021/12/27 06:30:02;;;;;;;11.15;4.63;;;-6.40;99.90;;;;;;5014987;28;20396;-82
2021/12/27 06:32:29;;;;;;;9.38;4.10;;;-6.30;99.90;;;;;;5047354;28;20440;-84
2021/12/27 06:34:57;;;;;;;8.40;3.63;;;-6.30;99.90;;;;;;5041855;28;20954;-84
2021/12/27 06:37:25;;;;;;;9.57;4.03;;;-6.30;99.90;;;;;;5018486;28;20420;-81
2021/12/27 06:39:52;;;;;;;8.65;4.30;;;-6.30;99.90;;;;;;5021330;28;20402;-83
2021/12/27 06:42:20;;;;;;;9.90;4.18;;;-6.30;99.90;;;;;;5040336;28;20880;-82
2021/12/27 06:44:48;;;;;;;10.05;4.30;;;-6.30;99.90;;;;;;5044368;28;20391;-84
2021/12/27 06:47:16;;;;;;;9.52;4.50;;;-6.30;99.90;;;;;;5041308;28;20429;-82
2021/12/27 06:49:43;;;;;;;10.15;3.92;;;-6.20;99.90;;;;;;5034349;28;20391;-82
2021/12/27 06:52:11;;;;;;;11.30;4.32;;;-6.20;99.90;;;;;;5032826;28;20793;-82
2021/12/27 06:54:40;;;;;;;10.38;4.00;;;-6.20;99.90;;;;;;5022428;28;20397;-83
2021/12/27 06:57:08;;;;;;;8.43;3.80;;;-6.20;99.90;;;;;;5038733;28;20881;-83
2021/12/27 06:59:36;;;;;;;9.60;3.85;;;-6.20;99.90;;;;;;5049955;28;20515;-83
2021/12/27 07:02:05;;;;;;;8.98;3.65;;;-6.20;99.90;;;;;;5050521;28;20380;-83
2021/12/27 07:04:33;;;;;;;8.25;3.85;;;-6.20;99.90;;;;;;5050639;28;20380;-82
2021/12/27 07:07:01;;;;;;;10.20;3.95;;;-6.20;99.90;;;;;;5051472;28;20384;-82
2021/12/27 07:09:29;;;;;;;7.93;3.53;;;-6.10;99.90;;;;;;5050431;28;20396;-82
2021/12/27 07:11:57;;;;;;;10.18;4.22;;;-6.10;99.90;;;;;;5051003;28;20858;-82
2021/12/27 07:14:28;;;;;;;8.90;3.90;;;-6.10;99.90;;;;;;5051749;28;20445;-84
2021/12/27 07:16:56;;;;;;;8.03;3.90;;;-6.10;99.90;;;;;;5050310;28;20404;-82
2021/12/27 07:19:23;;;;;;;8.40;3.97;;;-6.10;99.90;;;;;;5050071;28;20403;-82
2021/12/27 07:21:51;;;;;;;8.52;4.10;;;-6.10;99.90;;;;;;5033918;28;20391;-83
2021/12/27 07:24:19;;;;;;;9.75;3.78;;;-6.00;99.90;;;;;;5050223;28;20390;-82
2021/12/27 07:26:46;;;;;;;8.05;3.60;;;-6.00;99.90;;;;;;5043330;28;20481;-82
2021/12/27 07:29:14;;;;;;;9.52;3.55;;;-6.00;99.90;;;;;;5038390;28;20403;-83
2021/12/27 07:31:42;;;;;;;10.43;3.92;;;-6.00;99.90;;;;;;5047750;28;20769;-82
2021/12/27 07:34:12;;;;;;;8.23;3.78;;;-6.00;99.90;;;;;;5045073;28;20936;-83
2021/12/27 07:36:40;;;;;;;10.30;4.37;;;-6.00;99.90;;;;;;5033092;28;20394;-85
2021/12/27 07:39:07;;;;;;;9.88;3.88;;;-6.00;99.90;;;;;;5071244;28;20406;-83
2021/12/27 07:41:35;;;;;;;8.98;3.95;;;-5.90;99.90;;;;;;5070390;28;20768;-82
2021/12/27 07:44:03;;;;;;;8.65;3.42;;;-5.90;99.90;;;;;;5069961;28;20386;-83
2021/12/27 07:46:31;;;;;;;8.50;3.90;;;-5.90;99.90;;;;;;5071607;28;20436;-85
2021/12/27 07:48:59;;;;;;;8.23;3.70;;;-5.80;99.90;;;;;;5066122;28;20399;-83
2021/12/27 07:51:28;;;;;;;11.07;3.90;;;-5.80;99.90;;;;;;5043165;28;20415;-83
2021/12/27 07:53:56;;;;;;;9.45;3.92;;;-5.90;99.90;;;;;;5051316;28;20741;-82
2021/12/27 07:56:23;;;;;;;7.80;3.30;;;-5.80;99.90;;;;;;5049949;28;20429;-83
2021/12/27 07:58:51;;;;;;;8.60;3.55;;;-5.80;99.90;;;;;;5031920;28;20405;-82
2021/12/27 08:01:19;;;;;;;9.70;3.55;;;-5.80;99.90;;;;;;5029775;28;20404;-83
2021/12/27 08:03:47;;;;;;;10.15;3.60;;;-5.80;99.90;;;;;;5034988;28;20393;-82
2021/12/27 08:06:14;;;;;;;9.48;4.05;;;-5.80;99.90;;;;;;5030142;28;20389;-82
2021/12/27 08:08:42;;;;;;;7.85;3.35;;;-5.80;99.90;;;;;;5031585;28;20390;-84
2021/12/27 08:11:10;;;;;;;8.77;3.72;;;-5.70;99.90;;;;;;5048323;28;20393;-84
2021/12/27 08:13:41;;;;;;;7.95;3.50;;;-5.70;99.90;;;;;;5040769;28;20385;-82
2021/12/27 08:16:09;;;;;;;9.27;3.80;;;-5.70;99.90;;;;;;5035295;28;20392;-82
2021/12/27 08:18:41;;;;;;;10.60;3.75;;;-5.70;99.90;;;;;;5043881;28;20755;-84
2021/12/27 08:21:09;;;;;;;9.68;3.88;;;-5.70;99.90;;;;;;5038753;28;20773;-83
2021/12/27 08:23:36;;;;;;;11.33;3.70;;;-5.70;99.90;;;;;;5048512;28;20405;-82
2021/12/27 08:26:04;;;;;;;8.27;3.65;;;-5.70;99.90;;;;;;5036116;28;20383;-82
2021/12/27 08:28:32;;;;;;;9.05;3.80;;;-5.70;99.90;;;;;;5037280;28;20876;-84
2021/12/27 08:31:00;;;;;;;8.85;3.83;;;-5.60;99.90;;;;;;5046514;28;20395;-84
2021/12/27 08:33:28;;;;;;;9.67;4.20;;;-5.60;99.90;;;;;;5034519;28;20385;-82
2021/12/27 08:35:58;;;;;;;7.93;3.80;;;-5.60;99.90;;;;;;5036648;28;20423;-83
2021/12/27 08:38:26;;;;;;;9.40;4.43;;;-5.60;99.90;;;;;;5051514;28;20387;-83
2021/12/27 08:40:53;;;;;;;9.40;3.85;;;-5.60;99.90;;;;;;5061619;28;20928;-82
2021/12/27 08:43:21;;;;;;;8.23;3.85;;;-5.50;99.90;;;;;;5052042;28;20766;-84
2021/12/27 08:45:50;;;;;;;9.60;3.80;;;-5.60;99.90;;;;;;5043934;28;21939;-83
2021/12/27 08:48:18;;;;;;;9.35;3.90;;;-5.60;99.90;;;;;;5046328;28;20386;-82
2021/12/27 08:50:46;;;;;;;10.18;3.90;;;-5.50;99.90;;;;;;5071693;28;20386;-83
2021/12/27 08:53:14;;;;;;;9.00;4.07;;;-5.50;99.90;;;;;;5074047;28;20390;-82
2021/12/27 08:55:42;;;;;;;7.97;3.63;;;-5.50;99.90;;;;;;5056298;28;20391;-82
2021/12/27 08:58:10;;;;;;;8.10;3.88;;;-5.50;99.90;;;;;;5056115;28;20427;-82
2021/12/27 09:00:37;;;;;;;9.15;3.50;;;-5.40;99.90;;;;;;5073892;28;20485;-82
2021/12/27 09:03:05;;;;;;;10.50;3.78;;;-5.40;99.90;;;;;;5074077;28;20382;-84
2021/12/27 09:05:33;;;;;;;9.65;4.38;;;-5.40;99.90;;;;;;5056152;28;20833;-82
2021/12/27 09:08:01;;;;;;;11.18;4.30;;;-5.40;99.90;;;;;;5056145;28;20798;-83
2021/12/27 09:10:29;;;;;;;9.30;3.75;;;-5.40;99.90;;;;;;5072478;28;20397;-82
2021/12/27 09:12:57;;;;;;;9.02;3.97;;;-5.40;99.90;;;;;;5072462;28;20390;-82
2021/12/27 09:15:24;;;;;;;8.38;3.70;;;-5.40;99.90;;;;;;5073835;28;20396;-82
2021/12/27 09:17:52;;;;;;;9.23;3.88;;;-5.30;99.90;;;;;;5072731;28;20401;-84
2021/12/27 09:20:21;;;;;;;9.50;3.42;;;-5.30;99.90;;;;;;5073479;28;20406;-83
2021/12/27 09:22:49;;;;;;;7.87;3.60;;;-5.30;99.90;;;;;;5055252;28;20437;-83
2021/12/27 09:25:16;;;;;;;8.55;3.80;;;-5.20;99.90;;;;;;5031042;28;20749;-82
2021/12/27 09:27:44;;;;;;;9.02;4.07;;;-5.20;99.90;;;;;;5026093;28;20404;-82
2021/12/27 09:30:14;;;;;;;9.73;3.90;;;-5.20;99.90;;;;;;5037429;28;20411;-82
2021/12/27 09:32:42;;;;;;;10.57;4.13;;;-5.10;99.90;;;;;;5041402;28;20413;-82
2021/12/27 09:35:10;;;;;;;7.90;3.67;;;-5.10;99.90;;;;;;5042970;28;20404;-84
2021/12/27 09:37:38;;;;;;;8.10;3.88;;;-5.10;99.90;;;;;;5048199;28;20722;-85
2021/12/27 09:40:06;;;;;;;10.23;4.18;;;-5.10;99.90;;;;;;5052880;28;20900;-86
2021/12/27 09:42:35;;;;;;;8.82;3.83;;;-5.10;99.90;;;;;;5053416;28;20450;-86
2021/12/27 09:45:05;;;;;;;9.35;4.38;;;-5.10;99.90;;;;;;5052199;28;20471;-85
2021/12/27 09:47:34;;;;;;;8.90;4.30;;;-5.00;99.90;;;;;;5046782;28;20447;-84
2021/12/27 09:50:26;;;;;;;11.57;4.67;;;-5.00;99.90;;;;;;5038116;28;20401;-85
2021/12/27 09:52:55;;;;;;;9.05;4.43;;;-5.00;99.90;;;;;;5051628;28;20475;-83
2021/12/27 09:55:23;;;;;;;9.65;4.55;;;-5.00;99.90;;;;;;5051784;28;20383;-85
2021/12/27 09:57:51;;;;;;;9.50;4.47;;;-4.90;99.90;;;;;;5052181;28;20416;-85
2021/12/27 10:00:19;;;;;;;12.02;4.63;;;-4.90;99.90;;;;;;5050574;28;20849;-84
2021/12/27 10:02:52;;;;;;;12.38;4.95;;;-4.90;99.90;;;;;;5052810;28;20384;-84
2021/12/27 10:05:22;;;;;;;11.75;4.97;;;-4.90;99.90;;;;;;5052908;28;20387;-84
2021/12/27 10:07:50;;;;;;;12.07;5.75;;;-4.80;99.90;;;;;;5051698;28;20390;-83
2021/12/27 10:10:34;;;;;;;11.30;5.38;;;-4.80;99.90;;;;;;5071146;28;20396;-84
2021/12/27 10:13:10;;;;;;;10.73;5.03;;;-4.70;99.90;;;;;;5072763;28;20921;-84
2021/12/27 10:15:41;;;;;;;13.68;5.78;;;-4.70;99.90;;;;;;5071320;28;20463;-83
2021/12/27 10:18:13;;;;;;;12.52;5.68;;;-4.60;99.90;;;;;;5072718;28;20385;-85
2021/12/27 10:20:42;;;;;;;11.48;5.40;;;-4.60;99.90;;;;;;5071416;28;20402;-84
2021/12/27 10:23:10;;;;;;;13.55;6.43;;;-4.60;99.90;;;;;;5071774;28;20390;-85
2021/12/27 10:25:38;;;;;;;12.60;5.63;;;-4.60;99.90;;;;;;5072590;28;20870;-84
2021/12/27 10:28:06;;;;;;;13.10;5.85;;;-4.60;99.90;;;;;;5054808;28;20918;-85
2021/12/27 10:30:45;;;;;;;12.38;6.05;;;-4.50;99.90;;;;;;5052521;28;20407;-84
2021/12/27 10:33:24;;;;;;;13.70;6.40;;;-4.50;99.90;;;;;;5034927;28;20396;-84
2021/12/27 10:35:57;;;;;;;13.30;6.47;;;-4.50;99.90;;;;;;5050843;28;20450;-85
2021/12/27 10:38:26;;;;;;;15.27;6.93;;;-4.50;99.90;;;;;;5034757;28;20482;-84
2021/12/27 10:41:09;;;;;;;17.95;7.15;;;-4.40;99.90;;;;;;5052166;28;20434;-85
2021/12/27 10:43:50;;;;;;;17.17;7.28;;;-4.40;99.90;;;;;;5050533;28;20478;-83
2021/12/27 10:46:37;;;;;;;17.17;7.13;;;-4.40;99.90;;;;;;5051295;28;20434;-84
2021/12/27 10:49:05;;;;;;;14.80;6.95;;;-4.30;99.90;;;;;;5034760;28;20399;-84
2021/12/27 10:51:33;;;;;;;15.18;6.97;;;-4.40;99.90;;;;;;5050816;28;20392;-84
2021/12/27 10:54:02;;;;;;;16.42;8.07;;;-4.40;99.90;;;;;;5050835;28;20418;-84
2021/12/27 10:56:53;;;;;;;16.00;8.23;;;-4.30;99.90;;;;;;5050791;28;20384;-83
2021/12/27 10:59:21;;;;;;;15.75;7.22;;;-4.30;99.90;;;;;;5050547;28;20426;-83
2021/12/27 11:01:50;;;;;;;17.80;7.97;;;-4.30;99.90;;;;;;5051781;28;20384;-83
2021/12/27 11:04:19;;;;;;;17.73;7.93;;;-4.30;99.90;;;;;;5050446;28;20458;-83
2021/12/27 11:06:49;;;;;;;17.13;8.18;;;-4.30;99.90;;;;;;5033947;28;20483;-83
2021/12/27 11:09:17;;;;;;;17.50;8.07;;;-4.20;99.90;;;;;;5051661;28;20479;-83
2021/12/27 11:11:46;;;;;;;18.58;8.30;;;-4.30;99.90;;;;;;5045458;28;20468;-84
2021/12/27 11:14:14;;;;;;;19.27;8.60;;;-4.30;99.90;;;;;;5031687;28;20387;-84
2021/12/27 11:16:43;;;;;;;17.63;8.57;;;-4.20;99.90;;;;;;5031611;28;20420;-83
2021/12/27 11:19:11;;;;;;;21.65;9.25;;;-4.20;99.90;;;;;;5030326;28;20412;-81
2021/12/27 11:21:44;;;;;;;19.45;8.60;;;-4.20;99.90;;;;;;5031909;28;20775;-83
2021/12/27 11:24:12;;;;;;;19.50;9.15;;;-4.10;99.90;;;;;;5031739;28;20880;-83
2021/12/27 11:26:42;;;;;;;22.08;9.07;;;-4.20;99.90;;;;;;5030423;28;20420;-83
2021/12/27 11:29:15;;;;;;;20.92;8.85;;;-4.10;99.90;;;;;;5030315;28;20385;-83
2021/12/27 11:31:45;;;;;;;19.77;9.32;;;-4.10;99.90;;;;;;5031444;28;20397;-84
2021/12/27 11:34:15;;;;;;;20.13;9.73;;;-4.00;99.90;;;;;;5031706;28;20423;-84
2021/12/27 11:36:52;;;;;;;20.88;9.77;;;-4.10;99.90;;;;;;5031614;28;20386;-84
2021/12/27 11:39:28;;;;;;;23.83;9.57;;;-4.00;99.90;;;;;;5031440;28;20389;-84
2021/12/27 11:42:08;;;;;;;21.40;9.93;;;-4.00;99.90;;;;;;5030687;28;20424;-84
2021/12/27 11:44:53;;;;;;;21.27;9.70;;;-4.00;99.90;;;;;;5030278;28;20817;-84
2021/12/27 11:47:29;;;;;;;20.50;9.70;;;-4.00;99.90;;;;;;5031433;28;20475;-83
2021/12/27 11:50:01;;;;;;;22.13;10.15;;;-4.00;99.90;;;;;;5031427;28;20385;-83
2021/12/27 11:52:31;;;;;;;21.65;10.07;;;-4.00;99.90;;;;;;5030248;28;20389;-84
2021/12/27 11:55:03;;;;;;;21.63;10.52;;;-3.90;99.90;;;;;;5030234;28;20752;-84
2021/12/27 11:57:56;;;;;;;22.05;10.05;;;-4.00;99.90;;;;;;5032880;28;20389;-84
2021/12/27 12:00:28;;;;;;;18.90;9.17;;;-4.00;99.90;;;;;;5034416;28;20459;-85
2021/12/27 12:03:16;;;;;;;22.63;10.30;;;-3.90;99.90;;;;;;5034200;28;20381;-84
2021/12/27 12:05:53;;;;;;;22.35;10.23;;;-3.90;99.90;;;;;;5033603;28;20390;-84
2021/12/27 12:08:49;;;;;;;22.83;10.63;;;-3.90;99.90;;;;;;5043445;28;20380;-84
2021/12/27 12:11:27;;;;;;;21.53;9.87;;;-3.90;99.90;;;;;;5055341;28;20475;-84
2021/12/27 12:13:55;;;;;;;22.55;10.85;;;-4.00;99.90;;;;;;5037111;28;20393;-83
2021/12/27 12:16:23;;;;;;;21.53;10.50;;;-3.90;99.90;;;;;;5017328;28;20425;-84
2021/12/27 12:18:50;;;;;;;20.57;10.20;;;-4.00;99.90;;;;;;5034979;28;20389;-83
2021/12/27 12:21:33;;;;;;;22.17;10.60;;;-4.00;99.90;;;;;;5034146;28;20401;-84
2021/12/27 12:24:11;;;;;;;21.85;10.52;;;-4.00;99.90;;;;;;5033642;28;20396;-83
2021/12/27 12:26:50;;;;;;;23.20;11.05;;;-4.00;99.90;;;;;;5033590;28;20855;-84
2021/12/27 12:29:39;;;;;;;24.05;10.90;;;-4.00;99.90;;;;;;5033885;28;20397;-84
2021/12/27 12:32:09;;;;;;;24.33;11.07;;;-4.00;99.90;;;;;;5033194;28;20402;-84
2021/12/27 12:34:37;;;;;;;24.55;11.93;;;-4.00;99.90;;;;;;5034276;28;20462;-82
2021/12/27 12:37:11;;;;;;;23.27;10.80;;;-4.00;99.90;;;;;;5052818;28;20390;-83
2021/12/27 12:39:50;;;;;;;23.83;11.55;;;-4.00;99.90;;;;;;5045682;28;20407;-84
2021/12/27 12:42:23;;;;;;;24.35;11.30;;;-4.10;99.90;;;;;;5042287;28;20395;-83
2021/12/27 12:45:02;;;;;;;24.85;11.07;;;-4.00;99.90;;;;;;5037772;28;20793;-84
2021/12/27 12:47:39;;;;;;;26.40;11.40;;;-4.10;99.90;;;;;;5040838;28;20431;-85
2021/12/27 12:50:19;;;;;;;24.40;11.73;;;-4.10;99.90;;;;;;5041823;28;20462;-84
2021/12/27 12:52:55;;;;;;;24.17;11.32;;;-4.10;99.90;;;;;;5041716;28;20606;-84
2021/12/27 12:55:26;;;;;;;26.27;12.32;;;-4.10;99.90;;;;;;5048288;28;20408;-85
2021/12/27 12:57:54;;;;;;;25.02;12.65;;;-4.10;99.90;;;;;;5035674;28;20779;-84